createdAt,value
2022-11-23T00:01:36.162Z,2.16
2022-11-23T00:04:10.504Z,2.12
2022-11-23T00:06:38.653Z,2.12
2022-11-23T00:09:07.443Z,2.12
2022-11-23T00:11:36.436Z,2.11
2022-11-23T00:14:04.920Z,2.08
2022-11-23T00:16:32.885Z,2.06
2022-11-23T00:19:01.800Z,2.05
2022-11-23T00:21:31.595Z,2.09
2022-11-23T00:23:59.797Z,2.10
2022-11-23T00:26:28.242Z,2.05
2022-11-23T00:28:56.116Z,2.01
2022-11-23T00:31:28.197Z,2.01
2022-11-23T00:33:58.091Z,2.01
2022-11-23T00:36:27.604Z,1.98
2022-11-23T00:38:55.783Z,1.98
2022-11-23T00:41:26.732Z,1.98
2022-11-23T00:43:54.999Z,1.97
2022-11-23T00:46:27.704Z,1.99
2022-11-23T00:48:57.897Z,1.98
2022-11-23T00:51:30.236Z,1.96
2022-11-23T00:53:59.927Z,1.96
2022-11-23T00:56:29.660Z,1.93
2022-11-23T00:58:59.300Z,1.91
2022-11-23T01:01:31.204Z,1.92
2022-11-23T01:04:01.290Z,1.88
2022-11-23T01:06:35.563Z,1.81
2022-11-23T01:09:12.188Z,1.76
2022-11-23T01:11:40.555Z,1.70
2022-11-23T01:14:08.727Z,1.62
2022-11-23T01:16:39.269Z,1.52
2022-11-23T01:19:10.954Z,1.48
2022-11-23T01:21:40.109Z,1.42
2022-11-23T01:24:12.500Z,1.38
2022-11-23T01:26:41.376Z,1.34
2022-11-23T01:29:09.242Z,1.27
2022-11-23T01:31:46.181Z,1.24
2022-11-23T01:34:16.245Z,1.21
2022-11-23T01:36:44.928Z,1.17
2022-11-23T01:39:13.822Z,1.10
2022-11-23T01:41:45.425Z,1.02
2022-11-23T01:44:34.677Z,0.95
2022-11-23T01:47:07.875Z,0.90
2022-11-23T01:49:43.502Z,0.82
2022-11-23T01:52:24.027Z,0.74
2022-11-23T01:54:59.185Z,0.68
2022-11-23T01:57:33.120Z,0.64
2022-11-23T02:00:02.333Z,0.60
2022-11-23T02:02:53.957Z,0.57
2022-11-23T02:05:27.844Z,0.56
2022-11-23T02:07:55.832Z,0.52
2022-11-23T02:10:24.181Z,0.45
2022-11-23T02:12:53.583Z,0.40
2022-11-23T02:15:21.605Z,0.36
2022-11-23T02:17:51.580Z,0.37
2022-11-23T02:20:19.928Z,0.39
2022-11-23T02:23:02.597Z,0.36
2022-11-23T02:25:45.703Z,0.32
2022-11-23T02:28:22.569Z,0.26
2022-11-23T02:30:53.326Z,0.21
2022-11-23T02:33:25.609Z,0.16
2022-11-23T02:35:57.059Z,0.12
2022-11-23T02:38:28.600Z,0.09
2022-11-23T02:40:58.334Z,0.06
2022-11-23T02:43:26.588Z,0.05
2022-11-23T02:46:01.926Z,-0.01
2022-11-23T02:48:29.777Z,-0.03
2022-11-23T02:50:57.589Z,-0.02
2022-11-23T02:53:25.420Z,-0.05
2022-11-23T02:55:54.609Z,-0.14
2022-11-23T02:58:22.453Z,-0.27
2022-11-23T03:00:50.573Z,-0.39
2022-11-23T03:03:21.079Z,-0.46
2022-11-23T03:05:48.943Z,-0.47
2022-11-23T03:08:16.797Z,-0.48
2022-11-23T03:10:44.782Z,-0.48
2022-11-23T03:13:13.059Z,-0.48
2022-11-23T03:15:41.747Z,-0.49
2022-11-23T03:18:11.361Z,-0.52
2022-11-23T03:20:40.042Z,-0.58
2022-11-23T03:23:08.021Z,-0.57
2022-11-23T03:25:35.862Z,-0.54
2022-11-23T03:28:05.302Z,-0.58
2022-11-23T03:30:34.563Z,-0.61
2022-11-23T03:33:04.192Z,-0.66
2022-11-23T03:35:32.160Z,-0.72
2022-11-23T03:38:15.083Z,-0.78
2022-11-23T03:40:46.481Z,-0.85
2022-11-23T03:43:23.259Z,-0.93
2022-11-23T03:45:51.204Z,-0.94
2022-11-23T03:48:19.684Z,-0.97
2022-11-23T03:50:47.730Z,-0.90
2022-11-23T03:53:16.837Z,-0.77
2022-11-23T03:55:47.009Z,-0.68
2022-11-23T03:58:15.743Z,-0.65
2022-11-23T04:00:44.054Z,-0.63
2022-11-23T04:03:14.307Z,-0.64
2022-11-23T04:06:09.341Z,-0.67
2022-11-23T04:09:02.111Z,-0.73
2022-11-23T04:11:59.753Z,-0.78
2022-11-23T04:14:27.729Z,-0.80
2022-11-23T04:16:55.784Z,-0.80
2022-11-23T04:19:23.669Z,-0.80
2022-11-23T04:21:51.740Z,-0.81
2022-11-23T04:24:20.426Z,-0.85
2022-11-23T04:26:48.440Z,-0.80
2022-11-23T04:29:16.367Z,-0.70
2022-11-23T04:31:47.414Z,-0.61
2022-11-23T04:34:18.315Z,-0.58
2022-11-23T04:36:46.829Z,-0.56
2022-11-23T04:39:15.005Z,-0.51
2022-11-23T04:42:01.899Z,-0.62
2022-11-23T04:44:31.645Z,-0.67
2022-11-23T04:47:02.861Z,-0.66
2022-11-23T04:49:32.188Z,-0.63
2022-11-23T04:52:00.459Z,-0.57
2022-11-23T04:54:32.929Z,-0.49
2022-11-23T04:57:02.469Z,-0.43
2022-11-23T04:59:30.683Z,-0.35
2022-11-23T05:02:00.321Z,-0.25
2022-11-23T05:04:48.516Z,-0.15
2022-11-23T05:07:17.946Z,-0.05
2022-11-23T05:09:50.579Z,0.03
2022-11-23T05:12:20.296Z,0.08
2022-11-23T05:14:48.228Z,0.16
2022-11-23T05:17:20.860Z,0.23
2022-11-23T05:19:50.106Z,0.27
2022-11-23T05:22:18.615Z,0.28
2022-11-23T05:24:46.765Z,0.30
2022-11-23T05:27:17.908Z,0.33
2022-11-23T05:29:47.003Z,0.37
2022-11-23T05:32:15.359Z,0.40
2022-11-23T05:34:43.967Z,0.42
2022-11-23T05:37:13.092Z,0.45
2022-11-23T05:39:49.636Z,0.46
2022-11-23T05:42:18.670Z,0.49
2022-11-23T05:44:48.852Z,0.53
2022-11-23T05:47:21.839Z,0.58
2022-11-23T05:49:50.729Z,0.58
2022-11-23T05:52:20.287Z,0.56
2022-11-23T05:54:49.575Z,0.54
2022-11-23T05:57:18.020Z,0.55
2022-11-23T05:59:46.713Z,0.57
2022-11-23T06:02:28.707Z,0.62
2022-11-23T06:05:01.182Z,0.60
2022-11-23T06:07:38.028Z,0.59
2022-11-23T06:10:10.022Z,0.60
2022-11-23T06:12:40.757Z,0.62
2022-11-23T06:15:12.721Z,0.66
2022-11-23T06:17:40.895Z,0.69
2022-11-23T06:20:12.759Z,0.73
2022-11-23T06:22:44.412Z,0.73
2022-11-23T06:25:12.481Z,0.72
2022-11-23T06:27:42.809Z,0.68
2022-11-23T06:30:24.585Z,0.67
2022-11-23T06:32:53.193Z,0.69
2022-11-23T06:35:23.891Z,0.68
2022-11-23T06:37:53.838Z,0.67
2022-11-23T06:40:21.911Z,0.67
2022-11-23T06:42:51.136Z,0.64
2022-11-23T06:45:28.092Z,0.59
2022-11-23T06:47:57.394Z,0.59
2022-11-23T06:50:25.488Z,0.57
2022-11-23T06:52:58.030Z,0.60
2022-11-23T06:55:36.457Z,0.66
2022-11-23T06:58:06.371Z,0.66
2022-11-23T07:00:34.649Z,0.68
2022-11-23T07:03:03.131Z,0.68
2022-11-23T07:05:33.968Z,0.72
2022-11-23T07:08:02.108Z,0.74
2022-11-23T07:10:31.488Z,0.77
2022-11-23T07:13:09.835Z,0.81
2022-11-23T07:15:38.710Z,0.84
2022-11-23T07:18:07.954Z,0.85
2022-11-23T07:20:36.707Z,0.86
2022-11-23T07:23:08.035Z,0.97
2022-11-23T07:25:37.927Z,1.05
2022-11-23T07:28:07.580Z,1.12
2022-11-23T07:30:36.346Z,1.07
2022-11-23T07:33:08.517Z,1.14
2022-11-23T07:35:38.304Z,1.27
2022-11-23T07:38:08.145Z,1.24
2022-11-23T07:40:37.784Z,1.24
2022-11-23T07:43:07.236Z,1.25
2022-11-23T07:45:36.844Z,1.24
2022-11-23T07:48:09.359Z,1.25
2022-11-23T07:50:39.004Z,1.25
2022-11-23T07:53:07.688Z,1.27
2022-11-23T07:55:35.557Z,1.27
2022-11-23T07:58:03.626Z,1.30
2022-11-23T08:00:31.727Z,1.31
2022-11-23T08:05:48.529Z,1.28
2022-11-23T08:08:16.706Z,1.34
2022-11-23T08:10:48.533Z,1.40
2022-11-23T08:13:21.147Z,1.43
2022-11-23T08:15:55.743Z,1.45
2022-11-23T08:18:24.615Z,1.44
2022-11-23T08:20:53.490Z,1.48
2022-11-23T08:23:21.958Z,1.51
2022-11-23T08:25:50.322Z,1.54
2022-11-23T08:28:18.899Z,1.52
2022-11-23T08:30:47.696Z,1.52
2022-11-23T08:33:16.172Z,1.51
2022-11-23T08:35:44.854Z,1.55
2022-11-23T08:38:13.234Z,1.58
2022-11-23T08:40:41.305Z,1.64
2022-11-23T08:43:09.684Z,1.66
2022-11-23T08:45:37.756Z,1.70
2022-11-23T08:48:06.545Z,1.76
2022-11-23T08:50:35.599Z,1.82
2022-11-23T08:53:03.712Z,1.86
2022-11-23T08:55:31.890Z,1.87
2022-11-23T08:58:00.166Z,1.84
2022-11-23T09:00:28.953Z,1.76
2022-11-23T09:02:59.182Z,1.73
2022-11-23T09:05:29.616Z,1.77
2022-11-23T09:08:01.468Z,1.83
2022-11-23T09:10:29.742Z,1.87
2022-11-23T09:12:59.494Z,1.88
2022-11-23T09:15:27.730Z,1.91
2022-11-23T09:17:57.139Z,1.91
2022-11-23T09:20:25.651Z,1.95
2022-11-23T09:22:55.475Z,1.95
2022-11-23T09:25:24.627Z,1.92
2022-11-23T09:27:59.999Z,1.95
2022-11-23T09:30:28.137Z,1.99
2022-11-23T09:32:58.146Z,2.02
2022-11-23T09:35:26.283Z,2.05
2022-11-23T09:37:58.511Z,2.11
2022-11-23T09:40:36.510Z,2.14
2022-11-23T09:43:33.274Z,2.17
2022-11-23T09:46:11.364Z,2.17
2022-11-23T09:49:16.456Z,2.12
2022-11-23T09:51:45.499Z,2.10
2022-11-23T09:54:29.405Z,2.14
2022-11-23T09:57:01.682Z,2.24
2022-11-23T09:59:29.991Z,2.27
2022-11-23T10:01:59.152Z,2.30
2022-11-23T10:04:33.364Z,2.34
2022-11-23T10:07:29.747Z,2.39
2022-11-23T10:10:21.585Z,2.43
2022-11-23T10:13:35.416Z,2.45
2022-11-23T10:16:06.411Z,2.36
2022-11-23T10:18:41.288Z,2.33
2022-11-23T10:21:35.076Z,2.33
2022-11-23T10:24:08.974Z,2.32
2022-11-23T10:26:41.591Z,2.24
2022-11-23T10:29:35.484Z,2.18
2022-11-23T10:32:11.717Z,2.10
2022-11-23T10:34:52.674Z,2.07
2022-11-23T10:37:20.652Z,2.11
2022-11-23T10:39:48.824Z,2.11
2022-11-23T10:42:49.506Z,2.13
2022-11-23T10:45:31.553Z,2.18
2022-11-23T10:48:00.549Z,2.18
2022-11-23T10:50:37.368Z,2.14
2022-11-23T10:53:05.384Z,2.16
2022-11-23T10:55:47.599Z,2.18
2022-11-23T10:58:30.558Z,2.28
2022-11-23T11:01:23.268Z,2.37
2022-11-23T11:03:53.169Z,2.44
2022-11-23T11:06:26.343Z,2.48
2022-11-23T11:08:56.921Z,2.50
2022-11-23T11:11:33.101Z,2.51
2022-11-23T11:14:23.514Z,2.50
2022-11-23T11:16:58.189Z,2.49
2022-11-23T11:19:36.317Z,2.49
2022-11-23T11:22:26.071Z,2.44
2022-11-23T11:24:55.134Z,2.36
2022-11-23T11:27:26.383Z,2.32
2022-11-23T11:29:58.081Z,2.33
2022-11-23T11:32:35.674Z,2.34
2022-11-23T11:35:20.822Z,2.34
2022-11-23T11:37:52.599Z,2.35
2022-11-23T11:40:26.501Z,2.41
2022-11-23T11:43:31.249Z,2.48
2022-11-23T11:46:31.659Z,2.59
2022-11-23T11:49:07.834Z,2.62
2022-11-23T11:51:41.283Z,2.64
2022-11-23T11:54:18.561Z,2.64
2022-11-23T11:56:50.818Z,2.59
2022-11-23T11:59:42.727Z,2.58
2022-11-23T12:02:33.990Z,2.61
2022-11-23T12:05:11.376Z,2.63
2022-11-23T12:08:01.393Z,2.65
2022-11-23T12:11:02.389Z,2.69
2022-11-23T12:13:38.622Z,2.75
2022-11-23T12:16:15.335Z,2.86
2022-11-23T12:19:01.463Z,2.83
2022-11-23T12:22:07.314Z,2.81
2022-11-23T12:25:16.301Z,2.80
2022-11-23T12:28:23.601Z,2.73
2022-11-23T12:31:17.036Z,2.64
2022-11-23T12:34:26.208Z,2.67
2022-11-23T12:37:09.215Z,2.65
2022-11-23T12:39:55.409Z,2.61
2022-11-23T12:42:48.406Z,2.58
2022-11-23T12:45:31.429Z,2.61
2022-11-23T12:48:41.187Z,2.58
2022-11-23T12:51:17.998Z,2.60
2022-11-23T12:54:18.854Z,2.61
2022-11-23T12:57:28.629Z,2.64
2022-11-23T13:00:11.979Z,2.64
2022-11-23T13:03:06.189Z,2.59
2022-11-23T13:05:56.009Z,2.57
2022-11-23T13:08:39.172Z,2.54
2022-11-23T13:11:27.819Z,2.48
2022-11-23T13:14:09.525Z,2.43
2022-11-23T13:16:57.849Z,2.40
2022-11-23T13:19:40.900Z,2.34
2022-11-23T13:22:17.972Z,2.35
2022-11-23T13:25:25.989Z,2.37
2022-11-23T13:27:56.406Z,2.39
2022-11-23T13:30:35.606Z,2.41
2022-11-23T13:33:18.310Z,2.40
2022-11-23T13:35:57.479Z,2.42
2022-11-23T13:38:27.919Z,2.47
2022-11-23T13:40:56.463Z,2.48
2022-11-23T13:43:36.753Z,2.51
2022-11-23T13:46:07.740Z,2.51
2022-11-23T13:48:59.546Z,2.49
2022-11-23T13:51:33.708Z,2.42
2022-11-23T13:54:04.678Z,2.37
2022-11-23T13:56:39.503Z,2.32
2022-11-23T13:59:23.033Z,2.26
2022-11-23T14:02:00.284Z,2.20
2022-11-23T14:04:38.807Z,2.23
2022-11-23T14:07:25.762Z,2.24
2022-11-23T14:10:15.537Z,2.22
2022-11-23T14:12:49.067Z,2.24
2022-11-23T14:15:21.984Z,2.26
2022-11-23T14:18:11.530Z,2.27
2022-11-23T14:20:54.823Z,2.34
2022-11-23T14:23:54.509Z,2.35
2022-11-23T14:26:55.352Z,2.36
2022-11-23T14:29:29.225Z,2.35
2022-11-23T14:32:22.459Z,2.29
2022-11-23T14:35:18.923Z,2.26
2022-11-23T14:38:02.190Z,2.23
2022-11-23T14:40:36.506Z,2.18
2022-11-23T14:43:04.982Z,2.18
2022-11-23T14:45:34.865Z,2.19
2022-11-23T14:48:29.452Z,2.21
2022-11-23T14:51:11.294Z,2.22
2022-11-23T14:53:47.416Z,2.27
2022-11-23T14:56:39.209Z,2.28
2022-11-23T14:59:25.568Z,2.37
2022-11-23T15:01:56.092Z,2.45
2022-11-23T15:04:36.264Z,2.45
2022-11-23T15:07:19.969Z,2.47
2022-11-23T15:09:47.868Z,2.50
2022-11-23T15:12:28.247Z,2.46
2022-11-23T15:14:57.770Z,2.41
2022-11-23T15:17:26.074Z,2.38
2022-11-23T15:19:59.746Z,2.37
2022-11-23T15:22:29.131Z,2.35
2022-11-23T15:25:09.637Z,2.33
2022-11-23T15:27:41.349Z,2.31
2022-11-23T15:30:19.973Z,2.29
2022-11-23T15:32:59.419Z,2.27
2022-11-23T15:35:35.736Z,2.33
2022-11-23T15:38:09.675Z,2.34
2022-11-23T15:40:41.754Z,2.37
2022-11-23T15:43:14.252Z,2.36
2022-11-23T15:46:01.748Z,2.37
2022-11-23T15:48:33.632Z,2.36
2022-11-23T15:51:04.811Z,2.33
2022-11-23T15:53:49.132Z,2.35
2022-11-23T15:56:25.368Z,2.36
2022-11-23T15:58:54.669Z,2.35
2022-11-23T16:01:23.324Z,2.32
2022-11-23T16:04:05.043Z,2.26
2022-11-23T16:06:36.413Z,2.21
2022-11-23T16:12:28.525Z,2.15
2022-11-23T16:14:59.739Z,2.13
2022-11-23T16:17:29.640Z,2.13
2022-11-23T16:20:00.041Z,2.16
2022-11-23T16:22:36.062Z,2.19
2022-11-23T16:25:09.190Z,2.22
2022-11-23T16:27:37.713Z,2.31
2022-11-23T16:30:06.569Z,2.30
2022-11-23T16:32:34.645Z,2.31
2022-11-23T16:35:16.845Z,2.32
2022-11-23T16:37:47.038Z,2.28
2022-11-23T16:40:15.755Z,2.24
2022-11-23T16:42:44.439Z,2.27
2022-11-23T16:45:12.513Z,2.27
2022-11-23T16:48:00.758Z,2.23
2022-11-23T16:50:31.233Z,2.23
2022-11-23T16:53:02.472Z,2.27
2022-11-23T16:55:30.543Z,2.32
2022-11-23T16:57:58.638Z,2.34
2022-11-23T17:00:27.159Z,2.31
2022-11-23T17:02:55.268Z,2.30
2022-11-23T17:05:26.584Z,2.29
2022-11-23T17:07:54.842Z,2.27
2022-11-23T17:10:23.234Z,2.23
2022-11-23T17:12:54.090Z,2.19
2022-11-23T17:15:23.851Z,2.14
2022-11-23T17:17:52.478Z,2.10
2022-11-23T17:20:20.704Z,2.07
2022-11-23T17:22:52.102Z,2.08
2022-11-23T17:25:19.957Z,2.08
2022-11-23T17:27:48.456Z,2.09
2022-11-23T17:30:20.962Z,2.09
2022-11-23T17:32:49.683Z,2.05
2022-11-23T17:35:17.981Z,2.06
2022-11-23T17:37:47.120Z,2.10
2022-11-23T17:40:16.078Z,2.09
2022-11-23T17:42:44.559Z,2.09
2022-11-23T17:45:13.348Z,2.13
2022-11-23T17:47:43.860Z,2.14
2022-11-23T17:50:19.512Z,2.16
2022-11-23T17:52:48.218Z,2.16
2022-11-23T17:55:16.792Z,2.14
2022-11-23T17:57:44.656Z,2.11
2022-11-23T18:00:23.409Z,2.14
2022-11-23T18:02:52.918Z,2.18
2022-11-23T18:05:22.159Z,2.23
2022-11-23T18:07:51.209Z,2.27
2022-11-23T18:10:19.409Z,2.28
2022-11-23T18:12:47.848Z,2.34
2022-11-23T18:15:15.917Z,2.38
2022-11-23T18:17:44.089Z,2.36
2022-11-23T18:20:13.299Z,2.36
2022-11-23T18:22:41.263Z,2.35
2022-11-23T18:25:09.434Z,2.34
2022-11-23T18:27:37.505Z,2.31
2022-11-23T18:30:06.275Z,2.28
2022-11-23T18:32:34.373Z,2.30
2022-11-23T18:35:02.611Z,2.34
2022-11-23T18:37:30.818Z,2.35
2022-11-23T18:39:58.693Z,2.39
2022-11-23T18:42:26.764Z,2.39
2022-11-23T18:44:54.627Z,2.39
2022-11-23T18:47:22.800Z,2.42
2022-11-23T18:49:51.077Z,2.45
2022-11-23T18:52:18.945Z,2.41
2022-11-23T18:54:46.799Z,2.40
2022-11-23T18:57:16.850Z,2.41
2022-11-23T19:00:00.861Z,2.39
2022-11-23T19:02:29.646Z,2.37
2022-11-23T19:04:58.088Z,2.38
2022-11-23T19:07:27.442Z,2.38
2022-11-23T19:09:55.938Z,2.39
2022-11-23T19:12:23.897Z,2.42
2022-11-23T19:14:51.973Z,2.46
2022-11-23T19:17:20.457Z,2.48
2022-11-23T19:19:48.424Z,2.46
2022-11-23T19:22:16.292Z,2.44
2022-11-23T19:24:44.581Z,2.45
2022-11-23T19:27:12.545Z,2.41
2022-11-23T19:29:40.394Z,2.39
2022-11-23T19:32:08.792Z,2.39
2022-11-23T19:34:36.662Z,2.39
2022-11-23T19:37:04.667Z,2.39
2022-11-23T19:39:32.816Z,2.40
2022-11-23T19:42:01.967Z,2.43
2022-11-23T19:44:29.973Z,2.40
2022-11-23T19:46:58.001Z,2.34
2022-11-23T19:49:26.527Z,2.31
2022-11-23T19:51:56.344Z,2.26
2022-11-23T19:54:24.367Z,2.20
2022-11-23T19:56:52.321Z,2.18
2022-11-23T19:59:20.244Z,2.15
2022-11-23T20:01:48.271Z,2.13
2022-11-23T20:04:16.634Z,2.07
2022-11-23T20:06:44.564Z,2.04
2022-11-23T20:09:23.801Z,2.01
2022-11-23T20:11:52.065Z,1.96
2022-11-23T20:14:20.660Z,1.92
2022-11-23T20:16:49.145Z,1.88
2022-11-23T20:19:17.529Z,1.87
2022-11-23T20:21:45.654Z,1.82
2022-11-23T20:24:14.133Z,1.75
2022-11-23T20:26:42.936Z,1.69
2022-11-23T20:29:13.759Z,1.64
2022-11-23T20:31:42.073Z,1.63
2022-11-23T20:34:15.388Z,1.58
2022-11-23T20:36:45.287Z,1.56
2022-11-23T20:39:14.282Z,1.53
2022-11-23T20:41:43.186Z,1.51
2022-11-23T20:44:13.914Z,1.49
2022-11-23T20:49:31.555Z,1.50
2022-11-23T20:51:59.937Z,1.49
2022-11-23T20:54:28.527Z,1.47
2022-11-23T20:57:00.228Z,1.47
2022-11-23T20:59:29.482Z,1.46
2022-11-23T21:01:57.765Z,1.44
2022-11-23T21:04:26.071Z,1.45
2022-11-23T21:06:55.543Z,1.44
2022-11-23T21:09:23.609Z,1.39
2022-11-23T21:12:10.210Z,1.34
2022-11-23T21:14:38.592Z,1.32
2022-11-23T21:17:06.501Z,1.33
2022-11-23T21:19:37.830Z,1.34
2022-11-23T21:22:11.527Z,1.36
2022-11-23T21:24:40.616Z,1.33
2022-11-23T21:27:12.380Z,1.34
2022-11-23T21:29:40.932Z,1.37
2022-11-23T21:32:08.741Z,1.40
2022-11-23T21:34:37.310Z,1.41
2022-11-23T21:37:05.514Z,1.40
2022-11-23T21:39:33.564Z,1.41
2022-11-23T21:42:01.641Z,1.43
2022-11-23T21:44:29.807Z,1.45
2022-11-23T21:46:58.153Z,1.46
2022-11-23T21:49:27.939Z,1.45
2022-11-23T21:51:55.941Z,1.47
2022-11-23T21:54:23.829Z,1.46
2022-11-23T21:56:51.805Z,1.43
2022-11-23T21:59:19.880Z,1.40
2022-11-23T22:01:48.505Z,1.39
2022-11-23T22:04:17.355Z,1.41
2022-11-23T22:06:45.714Z,1.45
2022-11-23T22:09:14.523Z,1.50
2022-11-23T22:11:44.329Z,1.53
2022-11-23T22:14:17.329Z,1.54
2022-11-23T22:16:47.848Z,1.53
2022-11-23T22:19:17.062Z,1.50
2022-11-23T22:21:46.959Z,1.52
2022-11-23T22:24:17.885Z,1.51
2022-11-23T22:26:47.894Z,1.50
2022-11-23T22:29:16.764Z,1.51
2022-11-23T22:31:45.214Z,1.54
2022-11-23T22:34:14.511Z,1.55
2022-11-23T22:36:43.105Z,1.53
2022-11-23T22:39:11.681Z,1.49
2022-11-23T22:41:40.353Z,1.47
2022-11-23T22:44:10.135Z,1.41
2022-11-23T22:46:39.478Z,1.37
2022-11-23T22:49:07.863Z,1.37
2022-11-23T22:51:36.572Z,1.37
2022-11-23T22:54:05.027Z,1.38
2022-11-23T22:56:33.188Z,1.33
2022-11-23T22:59:01.477Z,1.29
2022-11-23T23:01:31.128Z,1.28
2022-11-23T23:04:02.160Z,1.25
2022-11-23T23:06:36.154Z,1.26
2022-11-23T23:09:07.192Z,1.26
2022-11-23T23:11:36.272Z,1.28
2022-11-23T23:14:05.567Z,1.30
2022-11-23T23:16:34.640Z,1.33
2022-11-23T23:19:03.767Z,1.34
2022-11-23T23:21:32.256Z,1.34
2022-11-23T23:24:03.795Z,1.33
2022-11-23T23:26:32.189Z,1.36
2022-11-23T23:29:01.225Z,1.40
2022-11-23T23:31:30.616Z,1.42
2022-11-23T23:33:59.981Z,1.45
2022-11-23T23:36:28.558Z,1.41
2022-11-23T23:38:58.168Z,1.32
2022-11-23T23:41:26.241Z,1.30
2022-11-23T23:43:54.442Z,1.33
2022-11-23T23:46:23.177Z,1.34
2022-11-23T23:48:51.696Z,1.28
2022-11-23T23:51:24.411Z,1.25
2022-11-23T23:53:53.063Z,1.27
2022-11-23T23:56:24.403Z,1.30
2022-11-23T23:58:52.753Z,1.35
